Time;durP1;ratioP1;P1;durP2;ratioP2;P2;SDS_P1;SDS_P2;PMS_P1;PMS_P2;Temp;Humidity;BMP_temperature;BMP_pressure;BME280_temperature;BME280_humidity;BME280_pressure;Samples;Min_cycle;Max_cycle;Signal;HPM_P1;HPM_P2
2023/12/19 00:00:23;;;;;;;8.90;6.47;;;;;;;19.94;43.11;102525.88;4617872;31;20056;-65
2023/12/19 00:02:50;;;;;;;9.65;6.80;;;;;;;19.93;43.12;102524.13;4618422;31;20055;-65
2023/12/19 00:05:17;;;;;;;10.43;7.22;;;;;;;19.93;42.92;102516.94;4616661;31;20056;-63
2023/12/19 00:07:46;;;;;;;10.70;7.05;;;;;;;19.94;42.88;102524.06;4618874;31;20055;-63
2023/12/19 00:10:13;;;;;;;9.05;6.50;;;;;;;19.96;42.81;102516.75;4619534;31;20526;-57
2023/12/19 00:12:42;;;;;;;9.20;6.72;;;;;;;19.98;43.47;102509.47;4618001;31;20060;-57
2023/12/19 00:15:10;;;;;;;11.00;6.18;;;;;;;19.98;43.90;102497.84;4618457;31;20060;-56
2023/12/19 00:17:39;;;;;;;11.60;6.80;;;;;;;19.97;44.04;102501.47;4619328;31;20420;-64
2023/12/19 00:20:07;;;;;;;9.35;6.97;;;;;;;19.95;43.77;102492.66;4619044;31;20062;-64
2023/12/19 00:22:35;;;;;;;9.50;6.60;;;;;;;19.91;43.55;102485.75;4618199;31;20056;-64
2023/12/19 00:25:02;;;;;;;8.63;6.35;;;;;;;19.91;43.64;102491.97;4618044;31;20071;-64
2023/12/19 00:27:30;;;;;;;7.75;6.15;;;;;;;19.90;43.56;102482.19;4619536;31;20064;-64
2023/12/19 00:29:57;;;;;;;12.25;7.07;;;;;;;19.88;43.43;102480.56;4618967;31;20416;-64
2023/12/19 00:32:24;;;;;;;8.05;6.43;;;;;;;19.87;43.33;102485.06;4617746;31;20060;-64
2023/12/19 00:34:52;;;;;;;7.38;6.40;;;;;;;19.87;43.24;102479.69;4617875;31;20063;-64
2023/12/19 00:37:19;;;;;;;9.32;6.55;;;;;;;19.85;43.18;102488.78;4619307;31;20088;-64
2023/12/19 00:39:47;;;;;;;7.28;6.00;;;;;;;19.85;43.21;102486.09;4618738;31;20067;-64
2023/12/19 00:42:14;;;;;;;8.93;6.38;;;;;;;19.84;43.34;102484.38;4617739;31;20056;-64
2023/12/19 00:44:41;;;;;;;7.70;6.90;;;;;;;19.82;43.14;102481.81;4617868;31;20417;-64
2023/12/19 00:47:09;;;;;;;8.57;6.43;;;;;;;19.81;43.25;102473.81;4619426;31;20059;-64
2023/12/19 00:49:37;;;;;;;7.10;5.90;;;;;;;19.80;43.21;102472.97;4631144;30;20424;-63
2023/12/19 00:52:05;;;;;;;8.23;6.22;;;;;;;19.79;43.15;102473.06;4617233;31;20485;-64
2023/12/19 00:54:32;;;;;;;8.52;6.13;;;;;;;19.78;43.07;102474.91;4617484;31;20493;-63
2023/12/19 00:56:59;;;;;;;7.15;5.80;;;;;;;19.76;43.04;102472.28;4619312;31;20184;-63
2023/12/19 00:59:27;;;;;;;8.20;5.85;;;;;;;19.77;43.14;102478.53;4618332;31;20070;-64
2023/12/19 01:01:56;;;;;;;9.10;5.93;;;;;;;19.76;42.94;102482.16;4620845;31;20059;-63
2023/12/19 01:04:23;;;;;;;8.15;6.10;;;;;;;19.75;43.04;102475.94;4620795;31;20063;-64
2023/12/19 01:06:50;;;;;;;8.60;6.18;;;;;;;19.74;42.95;102479.59;4622378;31;20063;-64
2023/12/19 01:09:18;;;;;;;8.68;6.10;;;;;;;19.75;42.89;102470.56;4621581;31;20059;-64
2023/12/19 01:11:46;;;;;;;6.03;5.30;;;;;;;19.75;43.06;102475.06;4620571;31;20055;-63
2023/12/19 01:14:13;;;;;;;7.45;5.82;;;;;;;19.74;42.86;102468.84;4620544;31;20520;-64
2023/12/19 01:16:40;;;;;;;7.32;6.53;;;;;;;19.73;42.75;102469.81;4610646;31;20370;-57
2023/12/19 01:19:09;;;;;;;6.65;5.20;;;;;;;19.73;42.90;102464.44;4621121;31;20420;-56
2023/12/19 01:21:37;;;;;;;7.35;5.28;;;;;;;19.72;42.94;102465.38;4620288;31;20064;-57
2023/12/19 01:24:05;;;;;;;9.63;6.10;;;;;;;19.72;42.79;102465.38;4620495;31;20063;-57
2023/12/19 01:26:32;;;;;;;8.07;6.05;;;;;;;19.70;42.91;102464.63;4622426;31;20067;-57
2023/12/19 01:29:01;;;;;;;6.75;5.85;;;;;;;19.72;42.84;102465.38;4620680;31;20063;-56
2023/12/19 01:31:28;;;;;;;8.25;5.80;;;;;;;19.70;42.74;102455.69;4620189;31;20497;-56
2023/12/19 01:33:57;;;;;;;7.13;5.50;;;;;;;19.70;42.74;102456.56;4620355;31;20362;-56
2023/12/19 01:36:25;;;;;;;7.43;6.47;;;;;;;19.70;42.82;102455.69;4622294;31;20056;-64
2023/12/19 01:38:53;;;;;;;6.32;4.90;;;;;;;19.69;42.74;102460.22;4620455;31;20060;-64
2023/12/19 01:41:22;;;;;;;7.50;5.55;;;;;;;19.68;42.69;102466.50;4620688;31;20064;-64
2023/12/19 01:43:49;;;;;;;7.07;5.53;;;;;;;19.68;42.72;102458.44;4620318;31;20051;-64
2023/12/19 01:46:20;;;;;;;6.28;5.43;;;;;;;19.68;42.70;102449.53;4622638;31;20376;-64
2023/12/19 01:48:47;;;;;;;6.07;5.40;;;;;;;19.68;42.68;102452.22;4620013;31;20047;-63
2023/12/19 01:51:15;;;;;;;7.05;5.60;;;;;;;19.67;42.82;102447.81;4619865;31;20082;-64
2023/12/19 01:53:45;;;;;;;7.03;5.35;;;;;;;19.67;42.66;102443.31;4619778;31;20079;-66
2023/12/19 01:56:20;;;;;;;6.53;4.90;;;;;;;19.66;42.71;102433.53;4618128;31;20538;-58
2023/12/19 01:58:48;;;;;;;9.38;5.70;;;;;;;19.65;42.68;102426.44;4632484;30;20052;-58
2023/12/19 02:01:16;;;;;;;6.30;5.07;;;;;;;19.64;42.69;102424.69;4619832;31;20412;-58
2023/12/19 02:03:46;;;;;;;7.10;5.30;;;;;;;19.65;42.85;102428.25;4620711;31;20397;-55
2023/12/19 02:06:18;;;;;;;6.60;5.07;;;;;;;19.65;42.60;102421.06;4621942;31;20545;-57
2023/12/19 02:08:45;;;;;;;7.55;4.75;;;;;;;19.64;42.66;102421.13;4620108;31;20059;-57
2023/12/19 02:11:13;;;;;;;6.20;4.10;;;;;;;19.64;42.53;102423.81;4619958;31;20073;-56
2023/12/19 02:13:42;;;;;;;6.28;4.93;;;;;;;19.63;42.66;102420.28;4621099;31;20664;-57
2023/12/19 02:16:09;;;;;;;7.15;5.38;;;;;;;19.63;42.68;102422.09;4619188;31;20067;-65
2023/12/19 02:18:37;;;;;;;6.63;4.28;;;;;;;19.62;42.54;102418.56;4619937;31;20393;-64
2023/12/19 02:21:05;;;;;;;7.18;5.60;;;;;;;19.64;42.64;102423.81;4619629;31;20104;-64
2023/12/19 02:23:32;;;;;;;6.40;5.10;;;;;;;19.63;42.74;102419.41;4633515;30;20066;-64
2023/12/19 02:25:59;;;;;;;5.25;4.75;;;;;;;19.62;42.85;102426.59;4620651;31;20060;-64
2023/12/19 02:28:27;;;;;;;6.72;5.00;;;;;;;19.61;42.61;102422.19;4631836;30;20062;-65
2023/12/19 02:30:54;;;;;;;5.55;4.85;;;;;;;19.61;42.60;102422.19;4619649;31;20055;-64
2023/12/19 02:33:22;;;;;;;7.50;5.20;;;;;;;19.61;42.61;102424.00;4621332;31;20060;-64
2023/12/19 02:35:49;;;;;;;6.18;4.57;;;;;;;19.61;42.56;102424.00;4620509;31;20055;-60
2023/12/19 02:38:16;;;;;;;5.88;4.70;;;;;;;19.60;42.50;102407.00;4619424;31;20063;-66
2023/12/19 02:40:44;;;;;;;9.20;5.32;;;;;;;19.60;42.63;102400.75;4618955;31;20075;-63
2023/12/19 02:43:11;;;;;;;6.95;4.85;;;;;;;19.59;42.39;102393.66;4620529;31;20543;-57
2023/12/19 02:45:39;;;;;;;5.55;4.80;;;;;;;19.60;42.49;102404.28;4620195;31;20408;-58
2023/12/19 02:48:06;;;;;;;5.65;4.47;;;;;;;19.60;42.38;102409.66;4619038;31;20055;-65
2023/12/19 02:50:34;;;;;;;6.47;4.32;;;;;;;19.59;42.52;102399.91;4619009;31;20060;-64
2023/12/19 02:53:01;;;;;;;5.07;3.90;;;;;;;19.59;42.38;102402.59;4620363;31;20067;-64
2023/12/19 02:55:28;;;;;;;6.05;4.50;;;;;;;19.60;42.10;102412.34;4619771;31;20055;-57
2023/12/19 02:57:57;;;;;;;8.35;4.07;;;;;;;19.59;42.33;102405.25;4619144;31;20059;-57
2023/12/19 03:00:25;;;;;;;6.05;4.28;;;;;;;19.60;42.22;102407.00;4618851;31;20056;-57
2023/12/19 03:02:53;;;;;;;7.28;4.95;;;;;;;19.60;42.16;102400.75;4620595;31;20059;-56
2023/12/19 03:05:20;;;;;;;6.90;4.75;;;;;;;19.59;42.36;102399.91;4619415;31;20062;-57
2023/12/19 03:07:48;;;;;;;6.03;4.55;;;;;;;19.59;42.29;102404.41;4618584;31;20051;-57
2023/12/19 03:10:15;;;;;;;5.82;4.20;;;;;;;19.58;42.43;102395.50;4618765;31;20066;-57
2023/12/19 03:12:43;;;;;;;7.32;4.90;;;;;;;19.58;42.31;102398.19;4619547;31;20055;-57
2023/12/19 03:15:10;;;;;;;6.00;4.03;;;;;;;19.58;42.25;102389.25;4619503;31;20051;-57
2023/12/19 03:17:38;;;;;;;5.07;4.03;;;;;;;19.59;42.22;102393.66;4618664;31;20056;-57
2023/12/19 03:20:07;;;;;;;5.65;4.00;;;;;;;19.58;42.30;102395.50;4618678;31;20059;-57
2023/12/19 03:22:35;;;;;;;5.68;4.40;;;;;;;19.58;42.16;102390.13;4620197;31;20511;-58
2023/12/19 03:25:02;;;;;;;5.63;4.00;;;;;;;19.58;42.21;102389.25;4619034;31;20060;-57
2023/12/19 03:27:30;;;;;;;6.00;4.28;;;;;;;19.57;42.30;102391.09;4618653;31;20056;-65
2023/12/19 03:29:57;;;;;;;6.55;4.20;;;;;;;19.56;42.11;102392.03;4618368;31;20398;-65
2023/12/19 03:32:24;;;;;;;7.72;4.30;;;;;;;19.57;42.36;102390.19;4620292;31;20063;-64
2023/12/19 03:34:52;;;;;;;4.63;3.88;;;;;;;19.56;42.23;102380.41;4618913;31;20483;-64
2023/12/19 03:37:19;;;;;;;6.65;4.50;;;;;;;19.55;42.30;102376.88;4618458;31;20056;-65
2023/12/19 03:39:47;;;;;;;6.32;4.30;;;;;;;19.56;42.22;102378.59;4618281;31;20067;-65
2023/12/19 03:42:14;;;;;;;6.28;4.63;;;;;;;19.56;42.22;102380.41;4620255;31;20139;-65
2023/12/19 03:44:42;;;;;;;5.63;3.97;;;;;;;19.56;42.31;102372.34;4618771;31;20059;-65
2023/12/19 03:47:13;;;;;;;6.28;3.70;;;;;;;19.55;42.18;102368.81;4618325;31;20067;-57
2023/12/19 03:49:41;;;;;;;4.80;3.83;;;;;;;19.55;42.29;102366.13;4618330;31;20054;-58
2023/12/19 03:52:08;;;;;;;4.85;3.65;;;;;;;19.55;42.11;102357.19;4620508;31;20059;-57
2023/12/19 03:54:36;;;;;;;4.40;3.40;;;;;;;19.54;42.14;102359.03;4618124;31;20424;-57
2023/12/19 03:57:04;;;;;;;5.32;3.95;;;;;;;19.53;42.18;102354.63;4616623;31;20063;-58
2023/12/19 03:59:31;;;;;;;5.32;3.97;;;;;;;19.54;42.09;102350.13;4618084;31;20052;-58
2023/12/19 04:01:59;;;;;;;5.40;3.63;;;;;;;19.53;42.16;102341.19;4620878;31;20055;-57
2023/12/19 04:04:27;;;;;;;4.25;3.40;;;;;;;19.52;42.28;102345.69;4617980;31;20079;-57
2023/12/19 04:06:54;;;;;;;6.55;4.03;;;;;;;19.52;42.35;102340.31;4618020;31;20058;-56
2023/12/19 04:09:22;;;;;;;4.43;3.55;;;;;;;19.52;42.05;102336.75;4617794;31;20059;-55
2023/12/19 04:11:50;;;;;;;5.65;4.00;;;;;;;19.52;42.02;102334.06;4620329;31;20059;-55
2023/12/19 04:14:17;;;;;;;5.43;3.30;;;;;;;19.51;42.17;102325.16;4617853;31;20055;-56
2023/12/19 04:16:45;;;;;;;5.90;3.85;;;;;;;19.51;41.99;102324.28;4618038;31;20059;-56
2023/12/19 04:19:12;;;;;;;4.18;3.65;;;;;;;19.50;42.08;102317.22;4618338;31;20060;-55
2023/12/19 04:21:43;;;;;;;5.15;3.42;;;;;;;19.50;42.12;102310.00;4620319;31;20055;-57
2023/12/19 04:24:11;;;;;;;4.35;2.67;;;;;;;19.50;41.97;102310.00;4617522;31;20067;-57
2023/12/19 04:26:39;;;;;;;4.65;3.53;;;;;;;19.49;41.92;102310.97;4617753;31;20059;-55
2023/12/19 04:29:06;;;;;;;4.15;3.35;;;;;;;19.49;41.94;102308.28;4617810;31;20056;-57
2023/12/19 04:31:33;;;;;;;5.47;3.72;;;;;;;19.49;41.97;102304.75;4620891;31;20063;-56
2023/12/19 04:34:02;;;;;;;5.88;3.67;;;;;;;19.49;41.93;102305.59;4617782;31;20047;-56
2023/12/19 04:36:30;;;;;;;5.70;3.47;;;;;;;19.49;41.99;102307.44;4620476;31;20056;-57
2023/12/19 04:38:58;;;;;;;4.63;3.55;;;;;;;19.49;42.13;102302.91;4621007;31;20063;-58
2023/12/19 04:41:25;;;;;;;4.85;3.67;;;;;;;19.50;41.95;102307.31;4623996;31;20059;-56
2023/12/19 04:43:52;;;;;;;4.70;3.25;;;;;;;19.49;42.00;102302.91;4611204;31;20412;-57
2023/12/19 04:46:20;;;;;;;4.90;3.42;;;;;;;19.49;41.95;102296.69;4621325;31;20535;-57
2023/12/19 04:48:47;;;;;;;4.35;3.35;;;;;;;19.49;41.78;102291.31;4620735;31;20055;-57
2023/12/19 04:51:19;;;;;;;4.85;3.38;;;;;;;19.49;42.00;102281.44;4624233;31;20062;-57
2023/12/19 04:53:47;;;;;;;4.47;3.08;;;;;;;19.48;42.16;102290.41;4611054;31;20064;-56
2023/12/19 04:56:15;;;;;;;4.63;3.20;;;;;;;19.49;41.90;102304.75;4620916;31;20060;-55
2023/12/19 04:58:46;;;;;;;4.03;2.78;;;;;;;19.49;41.95;102292.19;4621081;31;20059;-55
2023/12/19 05:01:14;;;;;;;6.15;2.78;;;;;;;19.48;41.97;102298.47;4622705;31;20063;-54
2023/12/19 05:03:41;;;;;;;5.38;3.20;;;;;;;19.47;42.16;102294.06;4620989;31;20060;-55
2023/12/19 05:06:16;;;;;;;4.60;3.10;;;;;;;19.48;42.22;102305.69;4621038;31;20059;-64
2023/12/19 05:08:45;;;;;;;3.88;2.75;;;;;;;19.48;42.29;102298.47;4622502;31;20517;-63
2023/12/19 05:11:13;;;;;;;4.25;3.05;;;;;;;19.48;42.47;102290.41;4621605;31;21045;-64
2023/12/19 05:13:41;;;;;;;4.57;2.95;;;;;;;19.50;42.41;102298.41;4620974;31;20051;-64
2023/12/19 05:16:18;;;;;;;5.10;3.50;;;;;;;19.49;42.40;102297.53;4620845;31;20055;-64
2023/12/19 05:18:46;;;;;;;5.55;3.45;;;;;;;19.49;42.36;102296.69;4623892;31;20062;-65
2023/12/19 05:21:14;;;;;;;5.50;3.15;;;;;;;19.49;42.38;102299.38;4620380;31;20063;-64
2023/12/19 05:23:42;;;;;;;4.50;2.80;;;;;;;19.48;42.09;102292.25;4620459;31;20052;-64
2023/12/19 05:26:09;;;;;;;3.88;3.13;;;;;;;19.48;41.98;102294.94;4620515;31;20063;-64
2023/12/19 05:28:39;;;;;;;4.32;3.25;;;;;;;19.47;42.10;102299.44;4622960;31;20055;-64
2023/12/19 05:31:10;;;;;;;5.07;3.03;;;;;;;19.46;42.24;102300.41;4609053;31;20416;-64
2023/12/19 05:33:38;;;;;;;4.82;3.20;;;;;;;19.46;41.99;102291.50;4621107;30;20064;-65
2023/12/19 05:36:05;;;;;;;4.47;3.13;;;;;;;19.46;42.02;102297.72;4621056;31;20059;-65
2023/12/19 05:38:33;;;;;;;4.38;3.03;;;;;;;19.44;41.92;102299.63;4622402;31;20059;-65
2023/12/19 05:41:02;;;;;;;4.35;2.67;;;;;;;19.44;42.20;102296.94;4620278;31;20386;-65
2023/12/19 05:43:30;;;;;;;5.05;2.72;;;;;;;19.45;42.10;102305.91;4620399;31;20067;-65
2023/12/19 05:45:59;;;;;;;5.60;2.55;;;;;;;19.44;41.96;102313.06;4620561;31;20078;-65
2023/12/19 05:48:26;;;;;;;3.90;2.67;;;;;;;19.45;41.99;102311.28;4621936;31;20047;-64
2023/12/19 05:50:54;;;;;;;5.40;2.80;;;;;;;19.44;42.06;102309.53;4620495;31;20055;-64
2023/12/19 05:53:22;;;;;;;4.57;2.72;;;;;;;19.45;42.23;102313.97;4620616;31;20063;-64
2023/12/19 05:55:49;;;;;;;3.95;2.72;;;;;;;19.43;42.17;102311.34;4621067;31;20429;-62
2023/12/19 05:58:17;;;;;;;4.45;3.35;;;;;;;19.43;42.03;102315.84;4621911;31;20055;-57
2023/12/19 06:00:45;;;;;;;3.47;2.55;;;;;;;19.42;42.10;102317.69;4620370;31;20060;-57
2023/12/19 06:03:13;;;;;;;5.50;3.40;;;;;;;19.41;41.99;102318.66;4619841;31;20067;-57
2023/12/19 06:05:40;;;;;;;4.75;2.72;;;;;;;19.42;41.79;102314.13;4633492;30;20058;-57
2023/12/19 06:08:08;;;;;;;3.78;2.67;;;;;;;19.42;41.78;102314.13;4621228;31;20066;-65
2023/12/19 06:10:35;;;;;;;4.50;2.55;;;;;;;19.42;41.78;102308.78;4619918;31;20055;-65
2023/12/19 06:13:03;;;;;;;4.45;2.90;;;;;;;19.41;41.79;102309.72;4619546;31;20063;-65
2023/12/19 06:15:30;;;;;;;5.35;3.33;;;;;;;19.41;41.92;102301.69;4620504;31;20520;-65
2023/12/19 06:17:58;;;;;;;5.22;2.47;;;;;;;19.41;41.92;102309.72;4621504;31;20059;-64
2023/12/19 06:20:25;;;;;;;3.63;2.30;;;;;;;19.41;41.72;102301.69;4619526;31;20063;-64
2023/12/19 06:22:52;;;;;;;4.30;2.80;;;;;;;19.40;41.91;102300.78;4619865;31;20063;-58
2023/12/19 06:25:20;;;;;;;4.60;2.78;;;;;;;19.41;41.99;102299.00;4620554;31;20063;-58
2023/12/19 06:27:47;;;;;;;4.90;2.85;;;;;;;19.40;41.72;102294.56;4621052;31;20062;-54
2023/12/19 06:30:15;;;;;;;4.43;2.92;;;;;;;19.41;41.92;102304.38;4614227;31;20079;-54
2023/12/19 06:32:55;;;;;;;3.85;2.80;;;;;;;19.40;41.67;102303.47;4615400;31;20508;-58
2023/12/19 06:35:23;;;;;;;4.25;2.83;;;;;;;19.40;41.74;102299.94;4621981;31;20059;-55
2023/12/19 06:37:51;;;;;;;3.90;2.38;;;;;;;19.40;41.69;102305.31;4619445;31;20077;-63
2023/12/19 06:40:18;;;;;;;3.90;2.45;;;;;;;19.40;41.75;102303.47;4619050;31;20473;-63
2023/12/19 06:42:47;;;;;;;3.58;2.72;;;;;;;19.39;41.59;102306.28;4632199;30;20063;-64
2023/12/19 06:45:16;;;;;;;4.32;2.75;;;;;;;19.39;41.70;102307.13;4621822;31;20500;-63
2023/12/19 06:47:45;;;;;;;4.38;2.70;;;;;;;19.39;41.97;102306.28;4608788;31;20056;-56
2023/12/19 06:50:13;;;;;;;6.82;2.60;;;;;;;19.39;41.79;102300.91;4618957;31;20126;-56
2023/12/19 06:52:40;;;;;;;4.70;2.55;;;;;;;19.38;41.72;102313.47;4619377;31;20056;-56
2023/12/19 06:55:12;;;;;;;3.63;2.38;;;;;;;19.39;41.77;102303.59;4621684;31;20059;-57
2023/12/19 06:57:39;;;;;;;4.07;2.70;;;;;;;19.39;41.60;102301.75;4608593;31;20063;-64
2023/12/19 07:00:07;;;;;;;4.38;2.70;;;;;;;19.38;41.63;102296.50;4631470;30;20056;-64
2023/12/19 07:02:37;;;;;;;5.15;3.33;;;;;;;19.37;41.82;102303.69;4618834;31;20071;-64
2023/12/19 07:05:05;;;;;;;3.88;2.90;;;;;;;19.37;41.64;102300.16;4621117;31;20058;-64
2023/12/19 07:07:33;;;;;;;3.70;2.45;;;;;;;19.37;41.77;102292.09;4619243;31;20063;-63
2023/12/19 07:10:01;;;;;;;4.93;2.33;;;;;;;19.37;41.95;102284.03;4618972;31;20416;-64
2023/12/19 07:12:29;;;;;;;4.55;2.55;;;;;;;19.35;41.87;102284.13;4619436;31;20052;-64
2023/12/19 07:14:57;;;;;;;4.20;2.53;;;;;;;19.36;41.66;102284.97;4620632;31;20535;-64
2023/12/19 07:17:24;;;;;;;3.15;2.30;;;;;;;19.37;41.74;102286.72;4618647;31;20063;-54
2023/12/19 07:19:52;;;;;;;6.78;3.00;;;;;;;19.37;41.95;102289.41;4618719;31;20055;-55
2023/12/19 07:22:20;;;;;;;3.80;2.47;;;;;;;19.37;41.87;102292.09;4619502;31;20477;-55
2023/12/19 07:24:47;;;;;;;5.18;2.58;;;;;;;19.36;41.84;102290.34;4620324;31;20055;-55
2023/12/19 07:27:15;;;;;;;3.20;2.10;;;;;;;19.37;41.82;102284.03;4618366;31;20052;-64
2023/12/19 07:29:42;;;;;;;5.47;2.90;;;;;;;19.36;41.96;102274.22;4618658;31;20056;-64
2023/12/19 07:32:09;;;;;;;3.92;2.53;;;;;;;19.35;41.75;102264.44;4618808;31;20060;-64
2023/12/19 07:34:37;;;;;;;3.45;2.28;;;;;;;19.36;41.80;102260.81;4620449;31;20066;-63
2023/12/19 07:37:04;;;;;;;4.07;2.58;;;;;;;19.35;42.12;102270.69;4618683;31;20060;-55
2023/12/19 07:39:31;;;;;;;5.22;2.70;;;;;;;19.37;42.31;102265.22;4618289;31;20070;-55
2023/12/19 07:41:59;;;;;;;3.88;2.33;;;;;;;19.38;41.97;102261.59;4618779;31;20413;-55
2023/12/19 07:44:26;;;;;;;4.57;2.80;;;;;;;19.37;41.95;102257.19;4620160;31;20067;-56
2023/12/19 07:46:53;;;;;;;4.32;2.70;;;;;;;19.36;42.04;102255.44;4618560;31;20504;-55
2023/12/19 07:49:21;;;;;;;4.95;2.65;;;;;;;19.37;41.86;102249.13;4618379;30;20394;-56
2023/12/19 07:51:48;;;;;;;3.80;2.30;;;;;;;19.37;41.73;102257.19;4618703;31;20055;-55
2023/12/19 07:54:17;;;;;;;4.70;3.33;;;;;;;19.37;41.88;102254.50;4619930;31;20416;-56
2023/12/19 07:56:44;;;;;;;3.75;2.63;;;;;;;19.36;41.64;102255.44;4617942;31;20056;-57
2023/12/19 07:59:11;;;;;;;4.63;2.95;;;;;;;19.37;41.90;102254.50;4617932;31;20052;-57
2023/12/19 08:01:40;;;;;;;4.75;2.88;;;;;;;19.38;41.78;102262.44;4618369;31;20077;-57
2023/12/19 08:04:09;;;;;;;4.25;2.70;;;;;;;19.39;42.03;102261.47;4619477;31;20066;-57
2023/12/19 08:06:37;;;;;;;4.20;2.75;;;;;;;19.40;42.13;102259.66;4617556;31;20389;-57
2023/12/19 08:09:04;;;;;;;3.80;2.60;;;;;;;19.41;42.14;102258.72;4617854;31;20074;-57
2023/12/19 08:11:31;;;;;;;4.68;2.95;;;;;;;19.43;42.11;102260.31;4617875;31;20056;-58
2023/12/19 08:13:59;;;;;;;6.22;3.00;;;;;;;19.43;41.90;102248.72;4615433;31;20058;-57
2023/12/19 08:16:26;;;;;;;5.40;2.95;;;;;;;19.45;41.89;102246.81;4617481;31;20056;-58
2023/12/19 08:18:54;;;;;;;4.07;2.92;;;;;;;19.48;41.77;102251.97;4617678;31;20056;-56
2023/12/19 08:21:21;;;;;;;3.97;2.58;;;;;;;19.48;42.01;102250.13;4618452;31;20048;-59
2023/12/19 08:23:49;;;;;;;5.00;3.25;;;;;;;19.48;41.78;102252.81;4618923;31;20068;-57
2023/12/19 08:26:17;;;;;;;5.43;2.72;;;;;;;19.49;41.62;102249.19;4617307;31;20082;-58
2023/12/19 08:28:44;;;;;;;4.15;2.65;;;;;;;19.51;41.67;102247.25;4617531;31;20063;-59
2023/12/19 08:31:12;;;;;;;3.13;2.47;;;;;;;19.51;41.53;102241.03;4618322;31;20052;-59
2023/12/19 08:33:43;;;;;;;5.22;3.20;;;;;;;19.52;41.29;102243.59;4618939;31;20059;-64
2023/12/19 08:36:11;;;;;;;4.82;3.10;;;;;;;19.53;41.61;102247.19;4617506;31;20052;-65
2023/12/19 08:38:59;;;;;;;5.00;2.88;;;;;;;19.54;41.38;102246.22;4615918;31;20067;-65
2023/12/19 08:41:26;;;;;;;4.68;2.75;;;;;;;19.54;41.32;102240.84;4619571;31;20063;-64
2023/12/19 08:43:54;;;;;;;3.70;2.63;;;;;;;19.55;41.25;102242.56;4615973;31;20067;-64
2023/12/19 08:46:22;;;;;;;4.07;2.75;;;;;;;19.56;41.22;102235.34;4617699;31;20056;-65
2023/12/19 08:48:52;;;;;;;3.40;2.50;;;;;;;19.57;41.20;102229.00;4618014;31;20052;-64
2023/12/19 08:51:20;;;;;;;4.82;2.83;;;;;;;19.56;41.37;102221.91;4617464;31;20062;-64
2023/12/19 08:53:48;;;;;;;4.57;2.78;;;;;;;19.57;40.97;102223.63;4617561;31;20063;-65
2023/12/19 08:56:16;;;;;;;4.45;3.00;;;;;;;19.58;41.00;102217.34;4617627;31;20060;-64
2023/12/19 08:58:44;;;;;;;3.55;2.38;;;;;;;19.58;41.08;102220.00;4616384;31;20064;-64
2023/12/19 09:01:13;;;;;;;5.32;3.08;;;;;;;19.60;41.07;102216.25;4618906;31;20516;-64
2023/12/19 09:03:41;;;;;;;3.95;2.78;;;;;;;19.61;41.13;102206.41;4617261;31;20055;-64
2023/12/19 09:06:08;;;;;;;3.72;2.30;;;;;;;19.62;41.05;102203.63;4617232;31;20425;-59
2023/12/19 09:08:36;;;;;;;4.82;2.90;;;;;;;19.62;41.05;102198.25;4618286;31;20063;-58
2023/12/19 09:11:04;;;;;;;3.28;2.40;;;;;;;19.63;40.94;102193.75;4618564;31;20062;-58
2023/12/19 09:13:34;;;;;;;4.63;2.97;;;;;;;19.62;40.74;102187.50;4617245;31;20150;-58
2023/12/19 09:16:04;;;;;;;4.15;2.83;;;;;;;19.62;40.68;102190.19;4629649;30;20056;-59
2023/12/19 09:18:32;;;;;;;5.63;2.97;;;;;;;19.62;40.83;102190.19;4619122;31;20060;-58
2023/12/19 09:21:00;;;;;;;4.43;2.90;;;;;;;19.64;40.87;102188.25;4618468;31;20063;-58
2023/12/19 09:23:28;;;;;;;4.20;2.42;;;;;;;19.63;40.70;102186.53;4620413;31;20062;-58
2023/12/19 09:25:56;;;;;;;3.58;2.60;;;;;;;19.64;40.79;102185.56;4620327;31;20077;-58
2023/12/19 09:28:23;;;;;;;4.47;2.60;;;;;;;19.64;40.59;102190.09;4622313;31;20454;-64
2023/12/19 09:30:51;;;;;;;4.40;2.95;;;;;;;19.64;40.56;102182.03;4620699;31;20056;-64
2023/12/19 09:33:19;;;;;;;4.47;3.00;;;;;;;19.65;40.60;102184.63;4620118;31;20055;-64
2023/12/19 09:35:46;;;;;;;4.15;2.40;;;;;;;19.66;40.59;102175.59;4620160;31;20056;-64
2023/12/19 09:38:13;;;;;;;3.90;2.42;;;;;;;19.67;40.73;102163.03;4622364;31;20123;-64
2023/12/19 09:40:41;;;;;;;5.38;3.03;;;;;;;19.66;40.69;102156.78;4620332;31;20401;-64
2023/12/19 09:43:08;;;;;;;4.00;2.50;;;;;;;19.66;40.79;102158.63;4619892;31;20063;-64
2023/12/19 09:45:35;;;;;;;4.55;2.75;;;;;;;19.67;40.81;102150.44;4619759;31;20071;-64
2023/12/19 09:48:03;;;;;;;6.00;2.80;;;;;;;19.67;40.87;102145.06;4621873;31;20059;-64
2023/12/19 09:50:35;;;;;;;5.70;2.75;;;;;;;19.67;40.76;102138.84;4620181;31;20052;-65
2023/12/19 09:53:07;;;;;;;4.68;2.35;;;;;;;19.67;40.64;102145.06;4619349;31;20441;-64
2023/12/19 09:55:42;;;;;;;3.83;2.23;;;;;;;19.66;40.81;102143.34;4619738;31;20051;-65
2023/12/19 09:58:12;;;;;;;5.32;3.20;;;;;;;19.67;40.77;102139.69;4621880;31;20055;-65
2023/12/19 10:00:44;;;;;;;3.65;2.35;;;;;;;19.67;40.75;102130.78;4632491;30;20072;-64
2023/12/19 10:03:13;;;;;;;4.18;2.33;;;;;;;19.67;40.76;102134.31;4620042;31;20052;-65
2023/12/19 10:05:44;;;;;;;3.55;2.30;;;;;;;19.68;40.92;102130.66;4620049;31;20060;-65
2023/12/19 10:08:14;;;;;;;4.00;2.80;;;;;;;19.68;41.12;102127.97;4620400;31;20058;-65
2023/12/19 10:10:51;;;;;;;4.45;2.50;;;;;;;19.68;41.00;102127.13;4620054;31;20412;-65
2023/12/19 10:13:26;;;;;;;6.43;3.08;;;;;;;19.69;40.91;102131.56;4619513;31;20063;-65
2023/12/19 10:16:08;;;;;;;3.80;2.38;;;;;;;19.67;40.75;102122.72;4618657;31;20432;-60
2023/12/19 10:18:56;;;;;;;5.18;2.45;;;;;;;19.65;40.24;102122.84;4629780;30;20059;-59
2023/12/19 10:21:28;;;;;;;3.58;2.40;;;;;;;19.65;40.13;102124.66;4620512;31;20063;-59
2023/12/19 10:24:11;;;;;;;5.20;2.88;;;;;;;19.63;39.73;102122.06;4619812;31;20055;-58
2023/12/19 10:26:39;;;;;;;4.10;2.75;;;;;;;19.62;39.60;102125.72;4619217;31;20452;-59
2023/12/19 10:29:06;;;;;;;4.30;2.63;;;;;;;19.60;39.03;102111.47;4618233;31;20067;-58
2023/12/19 10:31:34;;;;;;;6.60;2.97;;;;;;;19.59;38.99;102117.81;4621045;31;20055;-59
2023/12/19 10:34:04;;;;;;;5.20;2.13;;;;;;;19.59;38.95;102115.13;4617958;31;20059;-58
2023/12/19 10:36:33;;;;;;;4.05;2.30;;;;;;;19.58;38.78;102113.41;4619315;31;20064;-58
2023/12/19 10:39:05;;;;;;;5.85;2.65;;;;;;;19.58;38.74;102121.47;4619743;31;20060;-58
2023/12/19 10:41:35;;;;;;;5.10;2.30;;;;;;;19.57;38.66;102110.81;4620024;31;20066;-58
2023/12/19 10:44:03;;;;;;;4.10;2.70;;;;;;;19.56;38.78;102107.28;4618491;31;20063;-58
2023/12/19 10:46:32;;;;;;;6.80;3.00;;;;;;;19.56;38.35;102104.59;4619016;31;20063;-65
2023/12/19 10:49:00;;;;;;;4.00;2.20;;;;;;;19.55;38.26;102096.66;4620162;31;20543;-64
2023/12/19 10:51:33;;;;;;;3.75;2.10;;;;;;;19.55;38.13;102112.75;4619269;31;20063;-65
2023/12/19 10:54:25;;;;;;;3.80;2.47;;;;;;;19.53;37.88;102099.44;4617588;31;20060;-64
2023/12/19 10:57:10;;;;;;;3.47;2.35;;;;;;;19.54;37.97;102094.94;4618565;31;20747;-63
2023/12/19 10:59:48;;;;;;;3.58;2.45;;;;;;;19.52;37.81;102095.88;4609576;31;20056;-63
2023/12/19 11:02:29;;;;;;;4.68;2.75;;;;;;;19.52;37.78;102092.31;4618927;31;20408;-63
2023/12/19 11:05:11;;;;;;;4.35;2.70;;;;;;;19.52;37.92;102089.63;4618822;31;20074;-66
2023/12/19 11:07:41;;;;;;;3.55;2.45;;;;;;;19.53;38.21;102088.69;4610618;31;20507;-64
2023/12/19 11:10:10;;;;;;;4.95;2.50;;;;;;;19.55;38.19;102086.75;4618567;31;20064;-64
2023/12/19 11:12:38;;;;;;;3.75;2.33;;;;;;;19.55;38.40;102081.38;4620400;31;20063;-63
2023/12/19 11:15:07;;;;;;;4.10;2.30;;;;;;;19.57;38.52;102074.09;4618641;31;20063;-63
2023/12/19 11:17:51;;;;;;;3.90;3.08;;;;;;;19.57;38.58;102074.09;4618259;31;20432;-58
2023/12/19 11:20:33;;;;;;;4.72;2.75;;;;;;;19.57;38.56;102065.16;4619240;31;20527;-57
2023/12/19 11:23:47;;;;;;;4.30;3.00;;;;;;;19.58;38.34;102066.91;4617951;31;20078;-57
2023/12/19 11:26:40;;;;;;;4.20;2.92;;;;;;;19.57;38.49;102063.34;4609989;31;20075;-63
2023/12/19 11:29:44;;;;;;;6.43;3.35;;;;;;;19.58;38.35;102059.69;4609124;31;20409;-64
2023/12/19 11:32:27;;;;;;;5.60;2.88;;;;;;;19.58;38.68;102054.31;4619302;31;20048;-64